sensor_id;sensor_type;location;lat;lon;timestamp;P1;durP1;ratioP1;P2;durP2;ratioP2
86137;SDS011;76796;49.056;15.810;2024-03-23T00:55:24;11.68;;;6.45;;
86137;SDS011;76796;49.056;15.810;2024-03-23T00:57:49;10.20;;;6.00;;
86137;SDS011;76796;49.056;15.810;2024-03-23T01:00:15;11.07;;;6.80;;
86137;SDS011;76796;49.056;15.810;2024-03-23T01:02:41;11.13;;;7.30;;
86137;SDS011;76796;49.056;15.810;2024-03-23T01:05:12;9.38;;;6.80;;
86137;SDS011;76796;49.056;15.810;2024-03-23T01:07:44;9.90;;;6.72;;
86137;SDS011;76796;49.056;15.810;2024-03-23T01:10:10;10.18;;;6.60;;
86137;SDS011;76796;49.056;15.810;2024-03-23T01:12:36;10.75;;;6.32;;
86137;SDS011;76796;49.056;15.810;2024-03-23T01:15:01;8.05;;;5.53;;
86137;SDS011;76796;49.056;15.810;2024-03-23T01:17:28;10.30;;;6.75;;
86137;SDS011;76796;49.056;15.810;2024-03-23T01:19:54;8.77;;;6.15;;
86137;SDS011;76796;49.056;15.810;2024-03-23T01:22:27;9.27;;;5.47;;
86137;SDS011;76796;49.056;15.810;2024-03-23T01:24:52;8.80;;;5.82;;
86137;SDS011;76796;49.056;15.810;2024-03-23T01:27:18;7.30;;;5.43;;
86137;SDS011;76796;49.056;15.810;2024-03-23T01:29:43;9.10;;;6.60;;
86137;SDS011;76796;49.056;15.810;2024-03-23T01:32:09;8.48;;;5.93;;
86137;SDS011;76796;49.056;15.810;2024-03-23T01:34:35;8.77;;;6.00;;
86137;SDS011;76796;49.056;15.810;2024-03-23T01:37:00;10.68;;;6.40;;
86137;SDS011;76796;49.056;15.810;2024-03-23T01:39:32;11.32;;;6.43;;
86137;SDS011;76796;49.056;15.810;2024-03-23T01:41:58;10.32;;;7.05;;
86137;SDS011;76796;49.056;15.810;2024-03-23T01:44:23;12.68;;;7.00;;
86137;SDS011;76796;49.056;15.810;2024-03-23T01:46:49;9.50;;;5.88;;
86137;SDS011;76796;49.056;15.810;2024-03-23T01:49:15;10.23;;;7.10;;
86137;SDS011;76796;49.056;15.810;2024-03-23T01:51:41;9.50;;;6.15;;
86137;SDS011;76796;49.056;15.810;2024-03-23T01:54:08;11.07;;;6.65;;
86137;SDS011;76796;49.056;15.810;2024-03-23T01:56:40;9.98;;;6.88;;
86137;SDS011;76796;49.056;15.810;2024-03-23T01:59:06;9.60;;;6.22;;
86137;SDS011;76796;49.056;15.810;2024-03-23T02:01:33;7.85;;;5.72;;
86137;SDS011;76796;49.056;15.810;2024-03-23T02:04:07;11.15;;;6.75;;
86137;SDS011;76796;49.056;15.810;2024-03-23T02:06:34;10.00;;;6.68;;
86137;SDS011;76796;49.056;15.810;2024-03-23T02:09:00;9.82;;;6.07;;
86137;SDS011;76796;49.056;15.810;2024-03-23T02:11:27;9.45;;;6.05;;
86137;SDS011;76796;49.056;15.810;2024-03-23T02:14:00;8.77;;;6.03;;
86137;SDS011;76796;49.056;15.810;2024-03-23T02:16:26;10.60;;;6.30;;
86137;SDS011;76796;49.056;15.810;2024-03-23T02:18:51;11.82;;;6.35;;
86137;SDS011;76796;49.056;15.810;2024-03-23T02:21:17;9.50;;;5.88;;
86137;SDS011;76796;49.056;15.810;2024-03-23T02:23:42;8.73;;;6.47;;
86137;SDS011;76796;49.056;15.810;2024-03-23T02:26:08;8.00;;;5.88;;
86137;SDS011;76796;49.056;15.810;2024-03-23T02:28:33;10.20;;;6.15;;
86137;SDS011;76796;49.056;15.810;2024-03-23T02:31:05;8.18;;;5.97;;
86137;SDS011;76796;49.056;15.810;2024-03-23T02:33:31;9.38;;;6.50;;
86137;SDS011;76796;49.056;15.810;2024-03-23T02:35:58;11.98;;;7.30;;
86137;SDS011;76796;49.056;15.810;2024-03-23T02:38:23;12.35;;;6.07;;
86137;SDS011;76796;49.056;15.810;2024-03-23T02:40:49;10.38;;;6.93;;
86137;SDS011;76796;49.056;15.810;2024-03-23T02:43:15;12.05;;;6.70;;
86137;SDS011;76796;49.056;15.810;2024-03-23T02:45:40;8.00;;;5.88;;
86137;SDS011;76796;49.056;15.810;2024-03-23T02:48:13;9.48;;;5.95;;
86137;SDS011;76796;49.056;15.810;2024-03-23T02:50:41;9.00;;;6.60;;
86137;SDS011;76796;49.056;15.810;2024-03-23T02:53:07;10.88;;;6.15;;
86137;SDS011;76796;49.056;15.810;2024-03-23T02:55:32;11.70;;;7.47;;
86137;SDS011;76796;49.056;15.810;2024-03-23T02:57:58;9.82;;;6.22;;
86137;SDS011;76796;49.056;15.810;2024-03-23T03:00:27;10.82;;;6.35;;
86137;SDS011;76796;49.056;15.810;2024-03-23T03:02:53;9.63;;;6.32;;
86137;SDS011;76796;49.056;15.810;2024-03-23T03:05:26;9.57;;;6.55;;
86137;SDS011;76796;49.056;15.810;2024-03-23T03:07:58;8.20;;;6.38;;
86137;SDS011;76796;49.056;15.810;2024-03-23T03:10:23;9.75;;;6.22;;
86137;SDS011;76796;49.056;15.810;2024-03-23T03:12:49;9.98;;;6.70;;
86137;SDS011;76796;49.056;15.810;2024-03-23T03:15:14;10.98;;;7.13;;
86137;SDS011;76796;49.056;15.810;2024-03-23T03:17:40;11.02;;;6.22;;
86137;SDS011;76796;49.056;15.810;2024-03-23T03:20:05;10.18;;;6.63;;
86137;SDS011;76796;49.056;15.810;2024-03-23T03:22:37;12.05;;;7.65;;
86137;SDS011;76796;49.056;15.810;2024-03-23T03:25:03;12.05;;;6.90;;
86137;SDS011;76796;49.056;15.810;2024-03-23T03:27:30;12.57;;;7.00;;
86137;SDS011;76796;49.056;15.810;2024-03-23T03:29:56;11.48;;;6.97;;
86137;SDS011;76796;49.056;15.810;2024-03-23T03:32:21;11.55;;;7.85;;
86137;SDS011;76796;49.056;15.810;2024-03-23T03:34:47;9.63;;;6.43;;
86137;SDS011;76796;49.056;15.810;2024-03-23T03:37:12;8.15;;;6.30;;
86137;SDS011;76796;49.056;15.810;2024-03-23T03:39:44;12.88;;;7.35;;
86137;SDS011;76796;49.056;15.810;2024-03-23T03:42:10;9.18;;;6.68;;
86137;SDS011;76796;49.056;15.810;2024-03-23T03:44:36;10.32;;;6.97;;
86137;SDS011;76796;49.056;15.810;2024-03-23T03:47:02;12.15;;;7.75;;
86137;SDS011;76796;49.056;15.810;2024-03-23T03:49:27;11.57;;;7.88;;
86137;SDS011;76796;49.056;15.810;2024-03-23T03:51:53;11.40;;;8.00;;
86137;SDS011;76796;49.056;15.810;2024-03-23T03:54:19;12.13;;;7.57;;
86137;SDS011;76796;49.056;15.810;2024-03-23T03:56:51;13.45;;;7.07;;
86137;SDS011;76796;49.056;15.810;2024-03-23T03:59:17;12.27;;;8.00;;
86137;SDS011;76796;49.056;15.810;2024-03-23T04:01:42;12.18;;;7.53;;
86137;SDS011;76796;49.056;15.810;2024-03-23T04:04:14;13.43;;;8.25;;
86137;SDS011;76796;49.056;15.810;2024-03-23T04:06:42;12.85;;;8.40;;
86137;SDS011;76796;49.056;15.810;2024-03-23T04:09:08;13.77;;;7.47;;
86137;SDS011;76796;49.056;15.810;2024-03-23T04:11:35;13.45;;;8.07;;
86137;SDS011;76796;49.056;15.810;2024-03-23T04:14:08;13.95;;;7.63;;
86137;SDS011;76796;49.056;15.810;2024-03-23T04:16:34;16.38;;;8.55;;
86137;SDS011;76796;49.056;15.810;2024-03-23T04:19:00;13.80;;;8.48;;
86137;SDS011;76796;49.056;15.810;2024-03-23T04:21:27;12.50;;;7.72;;
86137;SDS011;76796;49.056;15.810;2024-03-23T04:23:52;14.93;;;8.50;;
86137;SDS011;76796;49.056;15.810;2024-03-23T04:26:18;11.65;;;7.72;;
86137;SDS011;76796;49.056;15.810;2024-03-23T04:28:43;13.25;;;7.60;;
86137;SDS011;76796;49.056;15.810;2024-03-23T04:31:16;13.05;;;7.82;;
86137;SDS011;76796;49.056;15.810;2024-03-23T04:33:41;11.85;;;7.30;;
86137;SDS011;76796;49.056;15.810;2024-03-23T04:36:07;11.02;;;7.43;;
86137;SDS011;76796;49.056;15.810;2024-03-23T04:38:32;14.02;;;8.40;;
86137;SDS011;76796;49.056;15.810;2024-03-23T04:40:58;14.80;;;8.48;;
86137;SDS011;76796;49.056;15.810;2024-03-23T04:43:27;13.02;;;7.78;;
86137;SDS011;76796;49.056;15.810;2024-03-23T04:45:53;14.82;;;7.97;;
86137;SDS011;76796;49.056;15.810;2024-03-23T04:48:26;13.15;;;8.32;;
86137;SDS011;76796;49.056;15.810;2024-03-23T04:50:55;13.40;;;8.75;;
86137;SDS011;76796;49.056;15.810;2024-03-23T04:53:23;12.05;;;8.27;;
86137;SDS011;76796;49.056;15.810;2024-03-23T04:55:53;12.35;;;9.13;;
86137;SDS011;76796;49.056;15.810;2024-03-23T04:58:22;14.40;;;8.95;;
86137;SDS011;76796;49.056;15.810;2024-03-23T05:00:54;13.77;;;9.25;;
86137;SDS011;76796;49.056;15.810;2024-03-23T05:03:20;14.88;;;9.85;;
86137;SDS011;76796;49.056;15.810;2024-03-23T05:05:53;11.38;;;8.10;;
86137;SDS011;76796;49.056;15.810;2024-03-23T05:08:26;12.52;;;8.73;;
86137;SDS011;76796;49.056;15.810;2024-03-23T05:10:51;11.90;;;8.40;;
86137;SDS011;76796;49.056;15.810;2024-03-23T05:13:17;13.48;;;8.43;;
86137;SDS011;76796;49.056;15.810;2024-03-23T05:15:43;12.90;;;8.35;;
86137;SDS011;76796;49.056;15.810;2024-03-23T05:18:08;11.10;;;8.20;;
86137;SDS011;76796;49.056;15.810;2024-03-23T05:20:34;14.25;;;8.38;;
86137;SDS011;76796;49.056;15.810;2024-03-23T05:23:07;12.32;;;7.35;;
86137;SDS011;76796;49.056;15.810;2024-03-23T05:25:39;12.35;;;8.00;;
86137;SDS011;76796;49.056;15.810;2024-03-23T05:28:04;12.13;;;7.70;;
86137;SDS011;76796;49.056;15.810;2024-03-23T05:30:30;14.45;;;9.20;;
86137;SDS011;76796;49.056;15.810;2024-03-23T05:32:56;13.68;;;8.65;;
86137;SDS011;76796;49.056;15.810;2024-03-23T05:35:21;14.18;;;9.38;;
86137;SDS011;76796;49.056;15.810;2024-03-23T05:37:47;19.60;;;12.65;;
86137;SDS011;76796;49.056;15.810;2024-03-23T05:40:19;19.50;;;10.00;;
86137;SDS011;76796;49.056;15.810;2024-03-23T05:42:44;12.07;;;9.07;;
86137;SDS011;76796;49.056;15.810;2024-03-23T05:45:10;12.60;;;8.43;;
86137;SDS011;76796;49.056;15.810;2024-03-23T05:47:36;13.52;;;9.02;;
86137;SDS011;76796;49.056;15.810;2024-03-23T05:50:02;13.70;;;8.23;;
86137;SDS011;76796;49.056;15.810;2024-03-23T05:52:28;17.50;;;8.55;;
86137;SDS011;76796;49.056;15.810;2024-03-23T05:54:55;12.15;;;7.53;;
86137;SDS011;76796;49.056;15.810;2024-03-23T05:57:28;11.32;;;7.75;;
86137;SDS011;76796;49.056;15.810;2024-03-23T05:59:54;13.15;;;8.32;;
86137;SDS011;76796;49.056;15.810;2024-03-23T06:02:19;11.25;;;7.70;;
86137;SDS011;76796;49.056;15.810;2024-03-23T06:04:52;15.23;;;7.78;;
86137;SDS011;76796;49.056;15.810;2024-03-23T06:07:18;15.18;;;8.10;;
86137;SDS011;76796;49.056;15.810;2024-03-23T06:09:44;12.15;;;7.68;;
86137;SDS011;76796;49.056;15.810;2024-03-23T06:12:09;13.20;;;8.27;;
86137;SDS011;76796;49.056;15.810;2024-03-23T06:14:42;15.00;;;8.43;;
86137;SDS011;76796;49.056;15.810;2024-03-23T06:17:07;15.52;;;10.23;;
86137;SDS011;76796;49.056;15.810;2024-03-23T06:19:33;14.32;;;10.05;;
86137;SDS011;76796;49.056;15.810;2024-03-23T06:21:58;14.45;;;9.70;;
86137;SDS011;76796;49.056;15.810;2024-03-23T06:24:24;13.27;;;9.20;;
86137;SDS011;76796;49.056;15.810;2024-03-23T06:26:50;11.60;;;8.07;;
86137;SDS011;76796;49.056;15.810;2024-03-23T06:29:16;11.63;;;8.23;;
86137;SDS011;76796;49.056;15.810;2024-03-23T06:31:52;14.10;;;9.13;;
86137;SDS011;76796;49.056;15.810;2024-03-23T06:34:19;12.23;;;8.20;;
86137;SDS011;76796;49.056;15.810;2024-03-23T06:36:46;11.25;;;7.63;;
86137;SDS011;76796;49.056;15.810;2024-03-23T06:39:12;12.00;;;7.57;;
86137;SDS011;76796;49.056;15.810;2024-03-23T06:41:41;11.63;;;7.53;;
86137;SDS011;76796;49.056;15.810;2024-03-23T06:44:16;10.65;;;6.65;;
86137;SDS011;76796;49.056;15.810;2024-03-23T06:46:43;9.07;;;7.35;;
86137;SDS011;76796;49.056;15.810;2024-03-23T06:49:15;9.75;;;7.07;;
86137;SDS011;76796;49.056;15.810;2024-03-23T06:51:40;10.45;;;6.82;;
86137;SDS011;76796;49.056;15.810;2024-03-23T06:54:06;11.20;;;8.13;;
86137;SDS011;76796;49.056;15.810;2024-03-23T06:56:32;12.32;;;7.72;;
86137;SDS011;76796;49.056;15.810;2024-03-23T06:58:58;10.77;;;8.02;;
86137;SDS011;76796;49.056;15.810;2024-03-23T07:01:24;10.27;;;7.05;;
86137;SDS011;76796;49.056;15.810;2024-03-23T07:03:49;11.65;;;7.80;;
86137;SDS011;76796;49.056;15.810;2024-03-23T07:06:22;11.30;;;7.60;;
86137;SDS011;76796;49.056;15.810;2024-03-23T07:08:54;10.13;;;7.40;;
86137;SDS011;76796;49.056;15.810;2024-03-23T07:11:22;9.93;;;7.75;;
86137;SDS011;76796;49.056;15.810;2024-03-23T07:13:52;14.38;;;7.22;;
86137;SDS011;76796;49.056;15.810;2024-03-23T07:16:19;12.02;;;7.78;;
86137;SDS011;76796;49.056;15.810;2024-03-23T07:18:45;11.15;;;7.80;;
86137;SDS011;76796;49.056;15.810;2024-03-23T07:21:11;9.13;;;6.80;;
86137;SDS011;76796;49.056;15.810;2024-03-23T07:23:44;9.48;;;7.03;;
86137;SDS011;76796;49.056;15.810;2024-03-23T07:26:13;9.15;;;6.80;;
86137;SDS011;76796;49.056;15.810;2024-03-23T07:28:39;10.63;;;6.78;;
86137;SDS011;76796;49.056;15.810;2024-03-23T07:31:10;8.55;;;6.07;;
86137;SDS011;76796;49.056;15.810;2024-03-23T07:33:37;8.15;;;6.32;;
86137;SDS011;76796;49.056;15.810;2024-03-23T07:36:06;8.73;;;6.30;;
86137;SDS011;76796;49.056;15.810;2024-03-23T07:38:32;8.90;;;6.70;;
86137;SDS011;76796;49.056;15.810;2024-03-23T07:41:11;8.65;;;6.45;;
86137;SDS011;76796;49.056;15.810;2024-03-23T07:43:40;8.68;;;6.80;;
86137;SDS011;76796;49.056;15.810;2024-03-23T07:46:05;8.52;;;6.32;;
86137;SDS011;76796;49.056;15.810;2024-03-23T07:48:32;9.27;;;6.60;;
86137;SDS011;76796;49.056;15.810;2024-03-23T07:51:02;10.55;;;6.35;;
86137;SDS011;76796;49.056;15.810;2024-03-23T07:53:30;8.30;;;6.15;;
86137;SDS011;76796;49.056;15.810;2024-03-23T07:55:57;6.50;;;5.85;;
86137;SDS011;76796;49.056;15.810;2024-03-23T07:58:31;9.90;;;6.38;;
86137;SDS011;76796;49.056;15.810;2024-03-23T08:01:02;8.95;;;5.93;;
86137;SDS011;76796;49.056;15.810;2024-03-23T08:03:43;9.68;;;6.80;;
86137;SDS011;76796;49.056;15.810;2024-03-23T08:06:16;7.63;;;5.65;;
86137;SDS011;76796;49.056;15.810;2024-03-23T08:08:54;7.07;;;5.55;;
86137;SDS011;76796;49.056;15.810;2024-03-23T08:14:03;7.22;;;5.72;;
86137;SDS011;76796;49.056;15.810;2024-03-23T08:16:30;8.35;;;5.30;;
86137;SDS011;76796;49.056;15.810;2024-03-23T08:18:55;9.75;;;5.55;;
86137;SDS011;76796;49.056;15.810;2024-03-23T08:21:28;10.80;;;4.93;;
86137;SDS011;76796;49.056;15.810;2024-03-23T08:23:54;9.35;;;4.78;;
86137;SDS011;76796;49.056;15.810;2024-03-23T08:26:19;5.68;;;4.70;;
86137;SDS011;76796;49.056;15.810;2024-03-23T08:28:45;7.00;;;4.53;;
86137;SDS011;76796;49.056;15.810;2024-03-23T08:31:17;12.38;;;7.65;;
86137;SDS011;76796;49.056;15.810;2024-03-23T08:33:42;6.53;;;4.35;;
86137;SDS011;76796;49.056;15.810;2024-03-23T08:36:08;6.85;;;4.00;;
86137;SDS011;76796;49.056;15.810;2024-03-23T08:38:38;5.70;;;3.45;;
86137;SDS011;76796;49.056;15.810;2024-03-23T08:41:04;6.57;;;3.67;;
86137;SDS011;76796;49.056;15.810;2024-03-23T08:43:37;5.25;;;3.70;;
86137;SDS011;76796;49.056;15.810;2024-03-23T08:46:05;4.05;;;3.00;;
86137;SDS011;76796;49.056;15.810;2024-03-23T08:48:41;4.45;;;3.15;;
86137;SDS011;76796;49.056;15.810;2024-03-23T08:51:12;6.85;;;3.20;;
86137;SDS011;76796;49.056;15.810;2024-03-23T08:53:39;5.90;;;2.85;;
86137;SDS011;76796;49.056;15.810;2024-03-23T08:56:06;7.97;;;3.67;;
86137;SDS011;76796;49.056;15.810;2024-03-23T08:58:33;4.55;;;3.25;;
86137;SDS011;76796;49.056;15.810;2024-03-23T09:01:03;3.28;;;2.92;;
86137;SDS011;76796;49.056;15.810;2024-03-23T09:03:36;5.25;;;3.42;;
86137;SDS011;76796;49.056;15.810;2024-03-23T09:06:10;6.53;;;3.78;;
86137;SDS011;76796;49.056;15.810;2024-03-23T09:08:36;5.28;;;3.33;;
86137;SDS011;76796;49.056;15.810;2024-03-23T09:11:05;3.88;;;2.55;;
86137;SDS011;76796;49.056;15.810;2024-03-23T09:13:33;5.97;;;2.72;;
86137;SDS011;76796;49.056;15.810;2024-03-23T09:16:09;4.78;;;2.88;;
86137;SDS011;76796;49.056;15.810;2024-03-23T09:18:35;3.20;;;2.40;;
86137;SDS011;76796;49.056;15.810;2024-03-23T09:21:10;2.60;;;2.20;;
86137;SDS011;76796;49.056;15.810;2024-03-23T09:23:43;4.05;;;2.20;;
86137;SDS011;76796;49.056;15.810;2024-03-23T09:26:09;4.63;;;1.90;;
86137;SDS011;76796;49.056;15.810;2024-03-23T09:28:35;2.83;;;1.80;;
86137;SDS011;76796;49.056;15.810;2024-03-23T09:31:06;5.75;;;2.03;;
86137;SDS011;76796;49.056;15.810;2024-03-23T09:33:34;2.97;;;1.60;;
86137;SDS011;76796;49.056;15.810;2024-03-23T09:36:03;2.42;;;1.98;;
86137;SDS011;76796;49.056;15.810;2024-03-23T09:38:29;5.20;;;2.08;;
86137;SDS011;76796;49.056;15.810;2024-03-23T09:41:06;2.42;;;1.80;;
86137;SDS011;76796;49.056;15.810;2024-03-23T09:43:33;4.90;;;2.00;;
86137;SDS011;76796;49.056;15.810;2024-03-23T09:46:02;3.15;;;1.85;;
86137;SDS011;76796;49.056;15.810;2024-03-23T09:48:28;2.90;;;1.73;;
86137;SDS011;76796;49.056;15.810;2024-03-23T09:50:53;3.60;;;2.05;;
86137;SDS011;76796;49.056;15.810;2024-03-23T09:53:19;5.28;;;1.77;;
86137;SDS011;76796;49.056;15.810;2024-03-23T09:55:45;3.80;;;1.92;;
86137;SDS011;76796;49.056;15.810;2024-03-23T09:58:17;5.00;;;1.73;;
86137;SDS011;76796;49.056;15.810;2024-03-23T10:00:43;4.43;;;1.75;;
86137;SDS011;76796;49.056;15.810;2024-03-23T10:03:10;3.08;;;1.63;;
86137;SDS011;76796;49.056;15.810;2024-03-23T10:05:43;4.22;;;1.83;;
86137;SDS011;76796;49.056;15.810;2024-03-23T10:10:40;2.88;;;1.92;;
86137;SDS011;76796;49.056;15.810;2024-03-23T10:13:06;4.55;;;1.50;;
86137;SDS011;76796;49.056;15.810;2024-03-23T10:15:38;4.15;;;1.65;;
86137;SDS011;76796;49.056;15.810;2024-03-23T10:18:37;6.07;;;1.60;;
86137;SDS011;76796;49.056;15.810;2024-03-23T10:23:38;6.45;;;1.70;;
86137;SDS011;76796;49.056;15.810;2024-03-23T10:26:21;6.05;;;1.80;;
86137;SDS011;76796;49.056;15.810;2024-03-23T10:28:52;4.45;;;1.70;;
86137;SDS011;76796;49.056;15.810;2024-03-23T10:31:24;8.23;;;1.85;;
86137;SDS011;76796;49.056;15.810;2024-03-23T10:33:50;4.93;;;1.75;;
86137;SDS011;76796;49.056;15.810;2024-03-23T10:36:19;3.17;;;1.73;;
86137;SDS011;76796;49.056;15.810;2024-03-23T10:38:45;3.75;;;1.30;;
86137;SDS011;76796;49.056;15.810;2024-03-23T10:41:12;3.97;;;1.65;;
86137;SDS011;76796;49.056;15.810;2024-03-23T10:43:38;3.13;;;1.67;;
86137;SDS011;76796;49.056;15.810;2024-03-23T10:46:04;3.38;;;1.40;;
86137;SDS011;76796;49.056;15.810;2024-03-23T10:48:36;5.15;;;1.88;;
86137;SDS011;76796;49.056;15.810;2024-03-23T10:51:02;4.05;;;1.63;;
86137;SDS011;76796;49.056;15.810;2024-03-23T10:53:28;5.85;;;1.85;;
86137;SDS011;76796;49.056;15.810;2024-03-23T10:55:54;4.75;;;1.70;;
86137;SDS011;76796;49.056;15.810;2024-03-23T10:58:26;4.13;;;1.77;;
86137;SDS011;76796;49.056;15.810;2024-03-23T11:00:55;8.27;;;1.77;;
86137;SDS011;76796;49.056;15.810;2024-03-23T11:03:30;8.93;;;2.10;;
86137;SDS011;76796;49.056;15.810;2024-03-23T11:06:06;2.80;;;1.60;;
86137;SDS011;76796;49.056;15.810;2024-03-23T11:08:39;5.82;;;1.85;;
86137;SDS011;76796;49.056;15.810;2024-03-23T11:11:16;8.88;;;2.03;;
86137;SDS011;76796;49.056;15.810;2024-03-23T11:13:50;30.33;;;3.40;;
86137;SDS011;76796;49.056;15.810;2024-03-23T11:16:23;28.67;;;3.70;;
86137;SDS011;76796;49.056;15.810;2024-03-23T11:19:42;35.22;;;3.92;;
86137;SDS011;76796;49.056;15.810;2024-03-23T11:22:05;16.05;;;2.83;;
86137;SDS011;76796;49.056;15.810;2024-03-23T11:24:31;11.57;;;1.98;;
86137;SDS011;76796;49.056;15.810;2024-03-23T11:26:57;5.70;;;1.75;;
86137;SDS011;76796;49.056;15.810;2024-03-23T11:29:29;2.85;;;1.00;;
86137;SDS011;76796;49.056;15.810;2024-03-23T11:31:55;4.82;;;1.05;;
86137;SDS011;76796;49.056;15.810;2024-03-23T11:34:21;3.22;;;0.63;;
86137;SDS011;76796;49.056;15.810;2024-03-23T11:36:47;4.45;;;1.05;;
86137;SDS011;76796;49.056;15.810;2024-03-23T11:39:20;3.83;;;0.95;;
86137;SDS011;76796;49.056;15.810;2024-03-23T11:41:49;1.65;;;0.73;;
86137;SDS011;76796;49.056;15.810;2024-03-23T11:44:16;2.22;;;0.70;;
86137;SDS011;76796;49.056;15.810;2024-03-23T11:46:47;1.15;;;0.70;;
86137;SDS011;76796;49.056;15.810;2024-03-23T11:49:20;1.23;;;0.65;;
86137;SDS011;76796;49.056;15.810;2024-03-23T11:51:47;1.65;;;0.55;;
86137;SDS011;76796;49.056;15.810;2024-03-23T11:54:13;1.67;;;1.00;;
86137;SDS011;76796;49.056;15.810;2024-03-23T11:56:58;1.50;;;0.70;;
86137;SDS011;76796;49.056;15.810;2024-03-23T11:59:34;1.10;;;0.90;;
86137;SDS011;76796;49.056;15.810;2024-03-23T12:02:08;0.75;;;0.63;;
86137;SDS011;76796;49.056;15.810;2024-03-23T12:04:42;0.88;;;0.68;;
86137;SDS011;76796;49.056;15.810;2024-03-23T12:07:15;1.13;;;0.60;;
86137;SDS011;76796;49.056;15.810;2024-03-23T12:09:46;1.02;;;0.68;;
86137;SDS011;76796;49.056;15.810;2024-03-23T12:12:38;1.80;;;0.85;;
86137;SDS011;76796;49.056;15.810;2024-03-23T12:15:07;1.33;;;0.77;;
86137;SDS011;76796;49.056;15.810;2024-03-23T12:17:34;1.15;;;0.60;;
86137;SDS011;76796;49.056;15.810;2024-03-23T12:20:00;0.57;;;0.38;;
86137;SDS011;76796;49.056;15.810;2024-03-23T12:22:27;1.80;;;0.63;;
86137;SDS011;76796;49.056;15.810;2024-03-23T12:24:54;2.00;;;0.73;;
86137;SDS011;76796;49.056;15.810;2024-03-23T12:27:20;1.27;;;0.75;;
86137;SDS011;76796;49.056;15.810;2024-03-23T12:29:52;1.13;;;0.52;;
86137;SDS011;76796;49.056;15.810;2024-03-23T12:32:18;1.30;;;0.68;;
86137;SDS011;76796;49.056;15.810;2024-03-23T12:34:43;1.25;;;0.88;;
86137;SDS011;76796;49.056;15.810;2024-03-23T12:37:09;0.98;;;0.70;;
86137;SDS011;76796;49.056;15.810;2024-03-23T12:39:35;1.30;;;0.70;;
86137;SDS011;76796;49.056;15.810;2024-03-23T12:42:01;0.90;;;0.70;;
86137;SDS011;76796;49.056;15.810;2024-03-23T12:44:28;1.95;;;1.00;;
86137;SDS011;76796;49.056;15.810;2024-03-23T12:47:00;2.63;;;1.45;;
86137;SDS011;76796;49.056;15.810;2024-03-23T12:49:26;2.05;;;1.20;;
86137;SDS011;76796;49.056;15.810;2024-03-23T12:51:55;7.55;;;1.63;;
86137;SDS011;76796;49.056;15.810;2024-03-23T12:54:21;2.05;;;1.55;;
86137;SDS011;76796;49.056;15.810;2024-03-23T12:56:48;2.65;;;1.65;;
86137;SDS011;76796;49.056;15.810;2024-03-23T12:59:14;1.50;;;1.13;;
86137;SDS011;76796;49.056;15.810;2024-03-23T13:01:39;2.15;;;1.45;;
86137;SDS011;76796;49.056;15.810;2024-03-23T13:04:12;2.17;;;1.42;;
86137;SDS011;76796;49.056;15.810;2024-03-23T13:06:51;3.75;;;1.25;;
86137;SDS011;76796;49.056;15.810;2024-03-23T13:09:16;2.58;;;1.55;;
86137;SDS011;76796;49.056;15.810;2024-03-23T13:11:42;1.88;;;1.33;;
86137;SDS011;76796;49.056;15.810;2024-03-23T13:14:08;1.85;;;1.23;;
86137;SDS011;76796;49.056;15.810;2024-03-23T13:16:33;3.90;;;1.17;;
86137;SDS011;76796;49.056;15.810;2024-03-23T13:18:59;2.40;;;1.30;;
86137;SDS011;76796;49.056;15.810;2024-03-23T13:21:32;1.70;;;1.10;;
86137;SDS011;76796;49.056;15.810;2024-03-23T13:23:58;2.33;;;1.30;;
86137;SDS011;76796;49.056;15.810;2024-03-23T13:26:23;1.42;;;1.30;;
86137;SDS011;76796;49.056;15.810;2024-03-23T13:28:49;1.75;;;1.33;;
86137;SDS011;76796;49.056;15.810;2024-03-23T13:31:14;2.08;;;1.42;;
86137;SDS011;76796;49.056;15.810;2024-03-23T13:33:40;1.58;;;1.20;;
86137;SDS011;76796;49.056;15.810;2024-03-23T13:36:07;2.58;;;1.38;;
86137;SDS011;76796;49.056;15.810;2024-03-23T13:38:39;2.58;;;1.40;;
86137;SDS011;76796;49.056;15.810;2024-03-23T13:41:05;2.38;;;1.67;;
86137;SDS011;76796;49.056;15.810;2024-03-23T13:43:31;1.90;;;1.30;;
86137;SDS011;76796;49.056;15.810;2024-03-23T13:45:57;3.33;;;1.95;;
86137;SDS011;76796;49.056;15.810;2024-03-23T13:48:25;2.25;;;1.55;;
86137;SDS011;76796;49.056;15.810;2024-03-23T13:50:57;5.03;;;2.00;;
86137;SDS011;76796;49.056;15.810;2024-03-23T13:53:23;2.20;;;1.60;;
86137;SDS011;76796;49.056;15.810;2024-03-23T13:55:55;3.05;;;1.55;;
86137;SDS011;76796;49.056;15.810;2024-03-23T13:58:21;2.50;;;1.58;;
86137;SDS011;76796;49.056;15.810;2024-03-23T14:00:47;2.67;;;1.33;;
86137;SDS011;76796;49.056;15.810;2024-03-23T14:03:13;1.77;;;1.20;;
86137;SDS011;76796;49.056;15.810;2024-03-23T14:05:39;2.28;;;1.70;;
86137;SDS011;76796;49.056;15.810;2024-03-23T14:08:12;1.98;;;1.20;;
86137;SDS011;76796;49.056;15.810;2024-03-23T14:10:44;1.17;;;0.90;;
86137;SDS011;76796;49.056;15.810;2024-03-23T14:13:16;2.95;;;1.40;;
86137;SDS011;76796;49.056;15.810;2024-03-23T14:15:44;2.63;;;1.30;;
86137;SDS011;76796;49.056;15.810;2024-03-23T14:18:13;2.88;;;1.90;;
86137;SDS011;76796;49.056;15.810;2024-03-23T14:20:38;2.40;;;1.60;;
86137;SDS011;76796;49.056;15.810;2024-03-23T14:23:04;2.00;;;1.60;;
86137;SDS011;76796;49.056;15.810;2024-03-23T14:25:31;2.47;;;1.52;;
86137;SDS011;76796;49.056;15.810;2024-03-23T14:27:57;2.75;;;1.30;;
86137;SDS011;76796;49.056;15.810;2024-03-23T14:30:31;3.45;;;1.50;;
86137;SDS011;76796;49.056;15.810;2024-03-23T14:32:57;1.65;;;1.23;;
86137;SDS011;76796;49.056;15.810;2024-03-23T14:35:22;1.95;;;0.82;;
86137;SDS011;76796;49.056;15.810;2024-03-23T14:37:52;1.08;;;0.75;;
86137;SDS011;76796;49.056;15.810;2024-03-23T14:40:18;1.27;;;1.02;;
86137;SDS011;76796;49.056;15.810;2024-03-23T14:42:44;0.70;;;0.68;;
86137;SDS011;76796;49.056;15.810;2024-03-23T14:45:09;1.58;;;0.95;;
86137;SDS011;76796;49.056;15.810;2024-03-23T14:47:43;1.33;;;1.00;;
86137;SDS011;76796;49.056;15.810;2024-03-23T14:50:10;1.85;;;1.05;;
86137;SDS011;76796;49.056;15.810;2024-03-23T14:52:39;1.15;;;0.75;;
86137;SDS011;76796;49.056;15.810;2024-03-23T14:55:05;0.90;;;0.80;;
86137;SDS011;76796;49.056;15.810;2024-03-23T14:57:30;1.33;;;0.90;;
86137;SDS011;76796;49.056;15.810;2024-03-23T14:59:56;1.63;;;1.00;;
86137;SDS011;76796;49.056;15.810;2024-03-23T15:02:22;3.17;;;1.30;;
86137;SDS011;76796;49.056;15.810;2024-03-23T15:05:01;2.03;;;1.52;;
86137;SDS011;76796;49.056;15.810;2024-03-23T15:07:32;3.05;;;0.85;;
86137;SDS011;76796;49.056;15.810;2024-03-23T15:09:58;1.38;;;0.73;;
86137;SDS011;76796;49.056;15.810;2024-03-23T15:12:23;2.55;;;1.30;;
86137;SDS011;76796;49.056;15.810;2024-03-23T15:14:49;2.20;;;1.40;;
86137;SDS011;76796;49.056;15.810;2024-03-23T15:17:15;1.73;;;1.30;;
86137;SDS011;76796;49.056;15.810;2024-03-23T15:19:40;1.42;;;0.90;;
86137;SDS011;76796;49.056;15.810;2024-03-23T15:22:14;1.40;;;0.80;;
86137;SDS011;76796;49.056;15.810;2024-03-23T15:24:40;1.20;;;0.93;;
86137;SDS011;76796;49.056;15.810;2024-03-23T15:27:05;2.88;;;0.80;;
86137;SDS011;76796;49.056;15.810;2024-03-23T15:29:34;1.35;;;0.70;;
86137;SDS011;76796;49.056;15.810;2024-03-23T15:31:59;1.40;;;0.90;;
86137;SDS011;76796;49.056;15.810;2024-03-23T15:34:25;4.32;;;1.15;;
86137;SDS011;76796;49.056;15.810;2024-03-23T15:36:50;3.28;;;1.98;;
86137;SDS011;76796;49.056;15.810;2024-03-23T15:39:22;1.58;;;0.98;;